Laichingen Airport

Jump to: basic info | weather | comments

Related pages: nearby airports | nearby navaids | notams | map

Basic information (top)

Codes: EDPJ
Location: lon 48.496944, lat 9.640278, elev 2,434 ft / 742 m msl
Status: small_airport

Weather (top)

Current conditions for Laupheim Airport 20nm (37km) SSE (rec'd 2014/04/24 00:20Z):

ETHL 240020Z 24003KT 9999 08/05 Q1018 BLU/

Airport forecast for Laupheim Airport 20nm (37km) SSE (rec'd 2014/01/14 11:27Z):

TAF ETHL 141119Z 1411/1423 25005KT 4500 -RADZ SCT008 BKN012 
      TEMPO 1415/1418 25007KT 2500 RADZ BKN007

Latest comments (top)

EDPJ: See also the homepage of the club 'FSV ... [read]

More... (top)

See also NOTAMs and nearby airports and navaids, or visit the Laichingen Airport page at the main OurAirports website..